WetterOnline ( https://www.wetteronline.ch )

Wetter aktuell Weiden

Aktuelles Wetter: Weiden (439m)

6-stündlich | Neueste Meldungen
Ortszeit Temperatur Wetter
Fr, 06.12. 19:00 -2.4° C bewölkt
Fr, 06.12. 13:00 -1.8° C bewölkt
Fr, 06.12. 7:00 -3.6° C bedeckt
Fr, 06.12. 1:00 -3.2° C bedeckt
Do, 05.12. 19:00 -2.2° C bedeckt
Do, 05.12. 13:00 -1.9° C bedeckt
Do, 05.12. 7:00 -3.4° C wolkenlos
Do, 05.12. 1:00 -1.3° C wolkig
Ortszeit Temperatur Wetter
Fr, 06.12. 21:00 -1.7° C bedeckt
Fr, 06.12. 20:40 -1.7° C bedeckt
Fr, 06.12. 20:30 -1.7° C bedeckt
Fr, 06.12. 20:20 -1.7° C bedeckt
Fr, 06.12. 20:10 -1.8° C bedeckt
Fr, 06.12. 20:00 -1.9° C bedeckt
Fr, 06.12. 19:50 -1.9° C bedeckt
Fr, 06.12. 19:30 -2.2° C bedeckt
Fr, 06.12. 19:00 -2.4° C bewölkt
Ortszeit Relative Feuchte Sichtweite
Fr, 06.12. 19:00 96% 6 km
Fr, 06.12. 13:00 87% 16 km
Fr, 06.12. 7:00 96% 4.9 km
Fr, 06.12. 1:00 98% 2.1 km
Do, 05.12. 19:00 96% 3.1 km
Do, 05.12. 13:00 91% 5.0 km
Do, 05.12. 7:00 92% 8 km
Do, 05.12. 1:00 84% 20 km
Ortszeit Relative Feuchte Sichtweite
Fr, 06.12. 21:00 96% 6 km
Fr, 06.12. 20:40 95% -
Fr, 06.12. 20:30 95% 7 km
Fr, 06.12. 20:20 95% -
Fr, 06.12. 20:10 94% -
Fr, 06.12. 20:00 96% 7 km
Fr, 06.12. 19:50 96% -
Fr, 06.12. 19:30 96% 6 km
Fr, 06.12. 19:00 96% 6 km
Ortszeit Niederschlagsmenge Niederschlagsart
Fr, 06.12. 19:00 0.1 l/m2 in 12 Std. -
Fr, 06.12. 13:00 0.1 l/m2 in 6 Std. Schnee
Fr, 06.12. 7:00 0.0 l/m2 in 12 Std. -
Fr, 06.12. 1:00 0.0 l/m2 in 6 Std. -
Do, 05.12. 19:00 0.0 l/m2 in 12 Std. -
Do, 05.12. 13:00 0.0 l/m2 in 6 Std. -
Do, 05.12. 7:00 0.0 l/m2 in 12 Std. -
Do, 05.12. 1:00 0.0 l/m2 in 6 Std. -
Ortszeit Niederschlagsmenge Niederschlagsart
Fr, 06.12. 21:00 0.0 l/m2 in 1 Std. -
Fr, 06.12. 20:40 keine Meldung -
Fr, 06.12. 20:30 0.0 l/m2 in 1 Std. -
Fr, 06.12. 20:20 keine Meldung -
Fr, 06.12. 20:10 keine Meldung -
Fr, 06.12. 20:00 0.0 l/m2 in 1 Std. -
Fr, 06.12. 19:50 keine Meldung -
Fr, 06.12. 19:30 0.0 l/m2 in 1 Std. -
Fr, 06.12. 19:00 0.0 l/m2 in 1 Std. -
Ortszeit Stärke Spitze Richtung
km/h Bft. km/h Grad Sektor
Fr, 06.12. 19:00 9 2 24 180° S
Fr, 06.12. 13:00 11 2 24 200° S
Fr, 06.12. 7:00 9 2 22 200° S
Fr, 06.12. 1:00 11 2 25 210° SW
Do, 05.12. 19:00 7 2 18 190° S
Do, 05.12. 13:00 11 2 18 190° S
Do, 05.12. 7:00 6 1 20 130° SO
Do, 05.12. 1:00 4 1 14 80° O
Ortszeit Stärke Spitze Richtung
km/h Bft. km/h Grad Sektor
Fr, 06.12. 21:00 7 2 18 160° S
Fr, 06.12. 20:40 6 1 - 140° SO
Fr, 06.12. 20:30 7 2 18 160° S
Fr, 06.12. 20:20 7 2 - 160° S
Fr, 06.12. 20:10 7 2 - 180° S
Fr, 06.12. 20:00 6 1 20 160° S
Fr, 06.12. 19:50 6 1 - 160° S
Fr, 06.12. 19:30 9 2 20 170° S
Fr, 06.12. 19:00 9 2 19 180° S
Ortszeit Untergrenze Bedeckung Gattung
total tief tief mittel hoch
Fr, 06.12. 19:00 120 m 8/8 7/8 - - -
Fr, 06.12. 13:00 210 m 7/8 7/8 - - -
Fr, 06.12. 7:00 90 m 8/8 8/8 - - -
Fr, 06.12. 1:00 60 m 8/8 8/8 - - -
Do, 05.12. 19:00 90 m 8/8 8/8 - - -
Do, 05.12. 13:00 150 m 8/8 8/8 - - -
Do, 05.12. 7:00 - 0/8 0/8 - - -
Do, 05.12. 1:00 10500 m 8/8 0/8 - - -
Ortszeit Bedeckungsgrad in Achtel und Wolkenuntergrenze
Fr, 06.12. 21:00 8(120m)
Fr, 06.12. 20:40 8(120m)
Fr, 06.12. 20:30 8(120m)
Fr, 06.12. 20:20 8(120m)
Fr, 06.12. 20:10 8(120m)
Fr, 06.12. 20:00 8(120m)
Fr, 06.12. 19:50 8(120m)
Fr, 06.12. 19:30 8(120m)
Fr, 06.12. 19:00 7(120m) 8(8400m)
Ortszeit Luftdruck NN (hPa) Tendenz (hPa in 3 Std.)
Fr, 06.12. 19:00 1018 - 0,9
Fr, 06.12. 13:00 1021 - 1,6
Fr, 06.12. 7:00 1023 - 0,7
Fr, 06.12. 1:00 1024 - 0,9
Do, 05.12. 19:00 1025 0,0
Do, 05.12. 13:00 1025 - 0,1
Do, 05.12. 7:00 1025 + 1,0
Do, 05.12. 1:00 1023 - 0,2
Ortszeit Luftdruck NN (hPa) Tendenz (hPa in 3 Std.)
Fr, 06.12. 21:00 1017 - 0,9
Fr, 06.12. 20:40 1017 keine Meldung
Fr, 06.12. 20:30 1018 - 0,9
Fr, 06.12. 20:20 1018 keine Meldung
Fr, 06.12. 20:10 1018 keine Meldung
Fr, 06.12. 20:00 1018 - 0,8
Fr, 06.12. 19:50 1018 keine Meldung
Fr, 06.12. 19:30 1018 - 0,9
Fr, 06.12. 19:00 1018 - 0,9
Ortszeit Schneehöhe (cm)
Fr, 06.12. 19:00 0
Fr, 06.12. 13:00 0
Fr, 06.12. 7:00 0
Fr, 06.12. 1:00 0
Do, 05.12. 19:00 0
Do, 05.12. 13:00 0
Do, 05.12. 7:00 0
Do, 05.12. 1:00 0
Ortszeit Schneehöhe (cm)
Fr, 06.12. 21:00 0
Fr, 06.12. 20:40 0
Fr, 06.12. 20:30 0
Fr, 06.12. 20:20 0
Fr, 06.12. 20:10 0
Fr, 06.12. 20:00 0
Fr, 06.12. 19:50 0
Fr, 06.12. 19:30 0
Fr, 06.12. 19:00 0
Link zu dieser Seite / Seite empfehlen

Das Wetter in ...